createdAt,value
2018-04-25T00:00:33.640Z,96.80
2018-04-25T00:03:03.754Z,83.10
2018-04-25T00:05:40.193Z,85.20
2018-04-25T00:08:10.666Z,88.00
2018-04-25T00:10:40.533Z,58.80
2018-04-25T00:13:10.672Z,23.80
2018-04-25T00:15:41.721Z,1.00
2018-04-25T00:18:12.607Z,1.00
2018-04-25T00:20:43.729Z,1.00
2018-04-25T00:23:13.828Z,1.00
2018-04-25T00:25:44.216Z,1.00
2018-04-25T00:28:14.566Z,1.00
2018-04-25T00:30:43.649Z,1.00
2018-04-25T00:33:18.198Z,1.00
2018-04-25T00:35:48.839Z,1.00
2018-04-25T00:38:19.045Z,1.00
2018-04-25T00:40:48.449Z,1.00
2018-04-25T00:43:17.590Z,1.40
2018-04-25T00:45:51.117Z,1.00
2018-04-25T00:48:22.261Z,1.00
2018-04-25T00:50:51.460Z,1.00
2018-04-25T00:53:21.079Z,1.00
2018-04-25T00:55:50.513Z,1.00
2018-04-25T00:58:22.723Z,1.00
2018-04-25T01:00:52.121Z,1.00
2018-04-25T01:03:21.523Z,1.00
2018-04-25T01:05:50.902Z,1.00
2018-04-25T01:08:20.327Z,1.00
2018-04-25T01:10:49.520Z,1.00
2018-04-25T01:13:18.974Z,1.00
2018-04-25T01:15:48.053Z,1.00
2018-04-25T01:18:17.363Z,1.00
2018-04-25T01:20:47.030Z,1.00
2018-04-25T01:23:25.538Z,10.70
2018-04-25T01:26:01.411Z,25.30
2018-04-25T01:28:40.981Z,52.60
2018-04-25T01:31:41.969Z,52.10
2018-04-25T01:34:29.717Z,72.90
2018-04-25T01:50:48.959Z,1.00
2018-04-25T01:53:37.616Z,1.00
2018-04-25T01:59:51.748Z,1.00
2018-04-25T02:02:20.589Z,1.00
2018-04-25T02:11:10.685Z,1.00
2018-04-25T02:13:40.799Z,1.00
2018-04-25T02:22:21.532Z,1.00
2018-04-25T02:24:52.515Z,1.00
2018-04-25T02:27:23.215Z,1.00
2018-04-25T02:29:53.640Z,1.00
2018-04-25T02:38:41.037Z,1.00
2018-04-25T02:44:07.087Z,1.00
2018-04-25T02:46:38.309Z,1.00
2018-04-25T02:49:09.852Z,1.00
2018-04-25T02:51:40.000Z,1.00
2018-04-25T02:54:09.844Z,1.00
2018-04-25T02:56:41.017Z,1.00
2018-04-25T02:59:11.590Z,1.00
2018-04-25T03:01:46.796Z,1.00
2018-04-25T03:04:18.495Z,1.00
2018-04-25T03:06:48.972Z,1.00
2018-04-25T03:09:25.355Z,1.00
2018-04-25T03:11:56.411Z,1.00
2018-04-25T03:14:27.821Z,1.00
2018-04-25T03:16:58.468Z,1.00
2018-04-25T03:19:28.671Z,1.00
2018-04-25T03:21:59.231Z,1.00
2018-04-25T03:24:29.619Z,1.00
2018-04-25T03:27:00.007Z,1.00
2018-04-25T03:29:36.069Z,1.00
2018-04-25T03:32:08.628Z,1.00
2018-04-25T03:34:39.779Z,1.00
2018-04-25T03:37:10.566Z,1.00
2018-04-25T03:39:40.866Z,1.00
2018-04-25T03:42:11.314Z,1.00
2018-04-25T03:44:42.739Z,1.00
2018-04-25T03:47:14.612Z,1.00
2018-04-25T03:49:45.045Z,1.00
2018-04-25T03:52:15.157Z,1.00
2018-04-25T03:54:46.624Z,1.00
2018-04-25T03:57:17.128Z,1.00
2018-04-25T03:59:48.279Z,1.00
2018-04-25T04:02:19.964Z,1.00
2018-04-25T04:04:50.083Z,1.00
2018-04-25T04:07:20.025Z,1.00
2018-04-25T04:09:50.247Z,1.00
2018-04-25T04:12:21.812Z,1.00
2018-04-25T04:14:52.188Z,1.00
2018-04-25T04:17:22.960Z,1.00
2018-04-25T04:19:53.098Z,1.00
2018-04-25T04:22:23.661Z,1.00
2018-04-25T04:24:54.820Z,1.00
2018-04-25T04:27:25.240Z,1.00
2018-04-25T04:29:55.385Z,1.00
2018-04-25T04:32:25.763Z,1.00
2018-04-25T04:34:56.050Z,1.00
2018-04-25T04:37:26.440Z,1.00
2018-04-25T04:39:56.559Z,1.00
2018-04-25T04:42:26.687Z,1.00
2018-04-25T04:44:57.068Z,1.00
2018-04-25T04:47:27.220Z,1.00
2018-04-25T04:49:57.324Z,1.00
2018-04-25T04:52:27.446Z,1.00
2018-04-25T04:54:57.953Z,1.00
2018-04-25T04:57:29.117Z,1.00
2018-04-25T04:59:59.541Z,1.00
2018-04-25T05:02:30.800Z,1.00
2018-04-25T05:05:01.274Z,1.00
2018-04-25T05:07:31.661Z,1.00
2018-04-25T05:10:03.944Z,1.00
2018-04-25T05:12:34.161Z,1.00
2018-04-25T05:15:04.111Z,1.00
2018-04-25T05:17:35.035Z,1.00
2018-04-25T05:20:05.174Z,1.00
2018-04-25T05:22:35.624Z,1.00
2018-04-25T05:25:05.746Z,1.00
2018-04-25T05:27:36.136Z,1.00
2018-04-25T05:30:06.262Z,1.00
2018-04-25T05:32:36.744Z,1.00
2018-04-25T05:35:07.843Z,1.00
2018-04-25T05:37:38.411Z,1.00
2018-04-25T05:40:09.620Z,1.00
2018-04-25T05:42:39.749Z,1.00
2018-04-25T05:45:09.669Z,1.00
2018-04-25T05:47:39.797Z,1.00
2018-04-25T05:50:10.016Z,1.00
2018-04-25T05:52:40.299Z,1.00
2018-04-25T05:55:10.428Z,1.00
2018-04-25T05:57:41.539Z,1.00
2018-04-25T06:00:11.927Z,1.00
2018-04-25T06:02:42.100Z,1.00
2018-04-25T06:05:13.055Z,99.90
2018-04-25T06:07:43.260Z,99.90
2018-04-25T06:10:13.398Z,99.90
2018-04-25T06:12:43.704Z,99.90
2018-04-25T06:15:14.084Z,99.90
2018-04-25T06:17:45.193Z,99.90
2018-04-25T06:20:15.588Z,99.90
2018-04-25T06:22:46.241Z,99.90
2018-04-25T06:25:16.812Z,99.90
2018-04-25T06:27:46.934Z,99.90
2018-04-25T06:30:17.323Z,99.90
2018-04-25T06:32:47.710Z,99.90
2018-04-25T06:35:17.831Z,99.90
2018-04-25T06:37:47.949Z,99.90
2018-04-25T06:40:18.254Z,99.90
2018-04-25T06:42:48.652Z,99.90
2018-04-25T06:45:19.838Z,99.90
2018-04-25T06:47:50.144Z,99.90
2018-04-25T06:50:20.721Z,99.90
2018-04-25T06:52:51.686Z,99.90
2018-04-25T06:55:21.778Z,99.90
2018-04-25T06:57:51.966Z,99.90
2018-04-25T07:00:22.268Z,99.90
2018-04-25T07:02:52.475Z,99.90
2018-04-25T07:05:22.604Z,99.90
2018-04-25T07:07:52.967Z,99.90
2018-04-25T07:10:23.284Z,99.90
2018-04-25T07:12:53.411Z,99.90
2018-04-25T07:15:23.614Z,99.90
2018-04-25T07:17:53.733Z,99.90
2018-04-25T07:20:23.853Z,99.90
2018-04-25T07:22:53.982Z,99.90
2018-04-25T07:25:24.093Z,99.90
2018-04-25T07:27:54.212Z,99.90
2018-04-25T07:30:24.520Z,99.90
2018-04-25T07:32:55.261Z,99.90
2018-04-25T07:35:26.452Z,99.90
2018-04-25T07:37:57.223Z,99.90
2018-04-25T07:40:28.140Z,99.90
2018-04-25T07:42:58.805Z,99.90
2018-04-25T07:45:29.465Z,99.90
2018-04-25T07:48:00.929Z,99.90
2018-04-25T07:50:32.057Z,99.90
2018-04-25T07:53:03.780Z,99.90
2018-04-25T07:55:35.249Z,99.90
2018-04-25T07:58:06.178Z,99.90
2018-04-25T08:00:37.107Z,99.90
2018-04-25T08:03:07.772Z,99.90
2018-04-25T08:05:38.879Z,99.90
2018-04-25T08:08:09.540Z,99.90
2018-04-25T08:10:41.193Z,99.90
2018-04-25T08:41:12.555Z,99.90
2018-04-25T08:53:41.246Z,99.90
2018-04-25T08:56:17.592Z,99.90
2018-04-25T09:01:59.663Z,99.90
2018-04-25T09:58:34.278Z,99.90
2018-04-25T10:01:05.005Z,99.90
2018-04-25T10:17:42.686Z,99.90
2018-04-25T10:20:13.264Z,99.90
2018-04-25T10:25:49.365Z,99.90
2018-04-25T11:19:15.719Z,99.90
2018-04-25T11:21:48.096Z,99.90
2018-04-25T11:24:32.647Z,99.90
2018-04-25T11:44:53.030Z,99.90
2018-04-25T11:47:39.789Z,99.90
2018-04-25T11:50:09.694Z,99.90
2018-04-25T11:55:58.762Z,99.90
2018-04-25T12:01:44.635Z,99.90
2018-04-25T12:04:15.031Z,99.90
2018-04-25T12:06:46.194Z,99.90
2018-04-25T12:12:23.211Z,99.90
2018-04-25T12:15:12.025Z,99.90
2018-04-25T12:17:43.053Z,99.90
2018-04-25T12:23:15.892Z,99.90
2018-04-25T12:28:54.848Z,99.90
2018-04-25T12:31:25.033Z,99.90
2018-04-25T12:37:01.586Z,99.90
2018-04-25T12:39:35.819Z,99.90
2018-04-25T12:42:15.365Z,99.90
2018-04-25T12:44:47.577Z,99.90
2018-04-25T12:47:18.243Z,99.90
2018-04-25T12:49:48.747Z,99.90
2018-04-25T13:01:23.205Z,1.00
2018-04-25T13:03:54.850Z,1.00
2018-04-25T13:06:25.243Z,1.00
2018-04-25T13:08:55.428Z,1.00
2018-04-25T13:11:43.645Z,1.00
2018-04-25T13:14:41.385Z,1.00
2018-04-25T13:17:29.861Z,1.00
2018-04-25T13:20:00.183Z,1.00
2018-04-25T13:22:37.722Z,1.00
2018-04-25T13:25:08.044Z,1.40
2018-04-25T13:41:59.432Z,1.00
2018-04-25T13:44:30.593Z,1.00
2018-04-25T13:47:00.788Z,1.00
2018-04-25T14:14:44.166Z,99.90
2018-04-25T14:17:20.169Z,99.90
2018-04-25T14:19:50.425Z,99.90
2018-04-25T14:22:43.321Z,99.90
2018-04-25T14:32:41.833Z,99.90
2018-04-25T14:35:11.982Z,99.90
2018-04-25T14:37:43.598Z,99.90
2018-04-25T14:40:14.515Z,99.90
2018-04-25T14:42:44.918Z,99.90
2018-04-25T14:45:16.656Z,99.90
2018-04-25T14:47:47.035Z,99.90
2018-04-25T14:50:17.598Z,99.90
2018-04-25T14:55:58.204Z,99.90
2018-04-25T14:58:29.555Z,99.90
2018-04-25T15:01:00.081Z,99.90
2018-04-25T15:03:32.273Z,99.90
2018-04-25T15:06:02.577Z,99.90
2018-04-25T15:11:38.543Z,99.90
2018-04-25T15:14:16.706Z,99.90
2018-04-25T15:19:52.943Z,99.90
2018-04-25T15:22:27.347Z,1.00
2018-04-25T15:24:57.451Z,1.00
2018-04-25T15:27:28.632Z,1.00
2018-04-25T15:29:59.584Z,1.00
2018-04-25T15:32:30.126Z,1.00
2018-04-25T15:35:00.315Z,1.00
2018-04-25T15:37:31.519Z,1.00
2018-04-25T15:40:01.945Z,1.00
2018-04-25T15:42:33.139Z,99.90
2018-04-25T15:45:03.407Z,99.90
2018-04-25T15:47:33.858Z,99.90
2018-04-25T15:50:03.982Z,99.90
2018-04-25T16:07:55.076Z,99.90
2018-04-25T16:10:25.385Z,99.90
2018-04-25T16:13:01.724Z,99.90
2018-04-25T16:15:32.901Z,99.90
2018-04-25T16:18:02.877Z,99.90
2018-04-25T16:20:34.589Z,99.90
2018-04-25T16:26:15.637Z,99.90
2018-04-25T16:28:48.050Z,99.90
2018-04-25T16:31:18.221Z,99.90
2018-04-25T16:33:48.500Z,99.90
2018-04-25T16:36:18.901Z,99.90
2018-04-25T16:38:50.296Z,1.40
2018-04-25T16:44:30.539Z,1.40
2018-04-25T16:47:01.823Z,1.00
2018-04-25T16:49:52.739Z,1.00
2018-04-25T16:52:31.110Z,1.00
2018-04-25T16:55:01.236Z,1.00
2018-04-25T16:57:33.436Z,1.00
2018-04-25T17:00:04.042Z,1.00
2018-04-25T17:02:34.222Z,1.00
2018-04-25T17:05:03.987Z,1.00
2018-04-25T17:07:34.220Z,1.00
2018-04-25T17:13:09.244Z,1.00
2018-04-25T17:15:59.306Z,1.00
2018-04-25T17:18:43.728Z,1.00
2018-04-25T17:21:14.361Z,1.00
2018-04-25T17:36:44.217Z,1.00
2018-04-25T17:39:14.493Z,1.00
2018-04-25T17:41:44.872Z,1.00
2018-04-25T17:44:15.919Z,1.00
2018-04-25T17:47:12.707Z,1.00
2018-04-25T17:49:43.670Z,1.00
2018-04-25T17:52:13.533Z,1.00
2018-04-25T17:54:43.851Z,1.00
2018-04-25T17:57:14.800Z,1.00
2018-04-25T17:59:45.200Z,1.00
2018-04-25T18:02:15.344Z,1.00
2018-04-25T18:04:46.552Z,1.00
2018-04-25T18:07:18.354Z,1.00
2018-04-25T18:09:48.766Z,1.00
2018-04-25T18:12:19.663Z,1.00
2018-04-25T18:14:49.817Z,1.00
2018-04-25T18:17:19.942Z,1.00
2018-04-25T18:19:50.495Z,1.00
2018-04-25T18:22:21.823Z,1.00
2018-04-25T18:24:52.415Z,1.00
2018-04-25T18:27:23.513Z,1.00
2018-04-25T18:29:54.703Z,1.00
2018-04-25T18:32:26.007Z,1.00
2018-04-25T18:35:14.866Z,1.00
2018-04-25T18:38:11.735Z,1.00
2018-04-25T18:40:45.644Z,1.00
2018-04-25T18:43:15.821Z,1.00
2018-04-25T18:45:47.490Z,1.00
2018-04-25T18:48:18.721Z,1.00
2018-04-25T18:50:49.419Z,1.00
2018-04-25T18:53:19.622Z,1.00
2018-04-25T18:55:50.341Z,1.00
2018-04-25T18:58:20.725Z,1.00
2018-04-25T19:00:51.842Z,1.00
2018-04-25T19:03:24.834Z,1.00
2018-04-25T19:05:56.455Z,1.00
2018-04-25T19:08:27.016Z,1.00
2018-04-25T19:10:58.653Z,1.00
2018-04-25T19:13:28.962Z,1.00
2018-04-25T19:16:00.460Z,1.00
2018-04-25T19:18:43.766Z,1.00
2018-04-25T19:21:14.865Z,1.00
2018-04-25T19:23:46.493Z,1.00
2018-04-25T19:26:21.686Z,1.00
2018-04-25T19:28:52.950Z,1.00
2018-04-25T19:31:23.346Z,1.00
2018-04-25T19:33:53.581Z,1.00
2018-04-25T19:36:26.369Z,1.00
2018-04-25T19:38:58.580Z,1.00
2018-04-25T19:41:32.470Z,1.00
2018-04-25T19:47:10.516Z,1.00
2018-04-25T19:49:41.102Z,1.00
2018-04-25T19:52:23.620Z,1.00
2018-04-25T19:54:55.727Z,1.00
2018-04-25T19:57:26.221Z,1.00
2018-04-25T19:59:56.954Z,1.00
2018-04-25T20:02:27.388Z,1.00
2018-04-25T20:04:58.579Z,1.00
2018-04-25T20:07:28.653Z,1.00
2018-04-25T20:10:14.013Z,1.00
2018-04-25T20:12:44.623Z,1.00
2018-04-25T20:15:15.923Z,1.00
2018-04-25T20:17:46.376Z,1.00
2018-04-25T20:20:17.509Z,1.00
2018-04-25T20:25:50.755Z,1.00
2018-04-25T20:28:20.846Z,1.00
2018-04-25T20:30:50.932Z,1.00
2018-04-25T20:33:21.045Z,1.00
2018-04-25T20:35:51.395Z,1.00
2018-04-25T20:38:22.537Z,1.00
2018-04-25T20:40:53.264Z,1.00
2018-04-25T20:43:23.551Z,1.00
2018-04-25T20:45:53.809Z,1.00
2018-04-25T20:48:23.884Z,1.00
2018-04-25T20:50:53.949Z,1.00
2018-04-25T20:53:24.023Z,1.00
2018-04-25T20:55:54.294Z,1.00
2018-04-25T20:58:24.413Z,1.00
2018-04-25T21:00:55.549Z,1.00
2018-04-25T21:03:25.418Z,1.00
2018-04-25T21:05:55.163Z,1.00
2018-04-25T21:08:26.081Z,1.00
2018-04-25T21:10:58.367Z,1.00
2018-04-25T21:13:28.598Z,1.00
2018-04-25T21:15:58.723Z,1.00
2018-04-25T21:18:28.875Z,1.00
2018-04-25T21:20:59.725Z,1.00
2018-04-25T21:23:30.287Z,1.00
2018-04-25T21:26:00.675Z,1.00
2018-04-25T21:28:30.747Z,1.00
2018-04-25T21:31:03.113Z,1.00
2018-04-25T21:33:33.484Z,1.00
2018-04-25T21:36:03.800Z,1.00
2018-04-25T21:38:34.715Z,1.00
2018-04-25T21:41:05.420Z,1.00
2018-04-25T21:43:36.033Z,1.00
2018-04-25T21:46:06.564Z,1.00
2018-04-25T21:48:41.082Z,1.00
2018-04-25T21:51:14.842Z,1.00
2018-04-25T21:53:47.276Z,23.90
2018-04-25T22:02:38.134Z,99.90
2018-04-25T22:23:30.338Z,99.90
2018-04-25T22:26:04.090Z,99.90
2018-04-25T22:28:39.509Z,99.90
2018-04-25T22:41:04.355Z,99.90
2018-04-25T22:49:47.049Z,99.90
2018-04-25T22:52:30.880Z,99.90
2018-04-25T23:01:34.423Z,99.90
2018-04-25T23:07:33.467Z,99.90
2018-04-25T23:10:03.847Z,99.90
2018-04-25T23:12:52.171Z,99.90
2018-04-25T23:21:56.742Z,99.90
2018-04-25T23:24:45.732Z,99.90
2018-04-25T23:30:45.185Z,99.90
2018-04-25T23:36:42.362Z,99.90
2018-04-25T23:39:29.269Z,99.90
2018-04-25T23:42:18.829Z,99.90
2018-04-25T23:51:28.160Z,99.90
2018-04-25T23:54:17.914Z,99.90
